Terminal Aerodrome Forecast
Issued by NWS

Home | Current Version | Previous Version | Text Only | Print | Product List | Glossary On
Versions: 1 2 3 4 5 6 7 8 9 10 11 12 13 14
926
FTUS42 TJSJ 092347
TAFJPS
TAF
TJPS 092347Z 1000/1024 05005KT P6SM FEW025 SCT050
     FM101300 15012KT P6SM FEW025
     FM102300 06005KT P6SM FEW030
      AMD NOT SKED=

USA.gov is the U.S. government's official web portal to all federal, state and local government web resources and services.